OMDBFIMP

Guest
Details From OMDB - Dubai Intl
To FIMP - Sir Seewoosagur Ramgoolam Intl
Flight Number -
Tags Generated
Created
Modified
Stats Distance 2,747 nm / 5,088 km
Max Altitude 0 ft / 0 m
Waypoints 3
Social Downloads 2
Likes 0
Share VATSIM

Download

Looking for another format? Having issues loading an existing format? Contact us
Advertisement - Login to hide

Notes

Generated

Route

OMDB IPL06 FIMP

ID Type Via Altitude Latitude Longitude Leg Dist Tot Dist Heading (true) Name
O OMDB APT - 0 ft / 0 m 25.26213˚ 55.34757˚ - 0 nm - -
IPL06 FIX - 0 ft / 0 m -20.42228˚ 57.66487˚ 2747 nm 2747 nm 177° / 177° -
O FIMP APT - 0 ft / 0 m -20.42332˚ 57.66925˚ 0 nm 2747 nm 104° / 104° -

Altitude Profile

Advertisement - Login to hide

Weather


0- 5 10 15 20 25 30 35+ Temperature / ° C

Clouds and Precipitation
Forecast for 2017-12-15 06:00 UTC. Updated 2 hours ago

Ground ~20,000 ft ~40,000 ft Winds

OMDB

Details ICAO OMDB (DXB)
Name DUBAI INTL
Region United Arab Emirates
Timezone Asia/Dubai (UTC+4.0)
Stats Elevation 62 ft / 19 m (AMSL)
Location 25.254912° 55.364260°
Runways 2
Magnetic Variation 2.047° E

METAR

OMDB 150200Z 10005KT CAVOK 20/12 Q1017 NOSIG

Decode

TAF

TAF OMDB 142255Z 1500/1606 14008KT 8000 FEW040 PROB30 TEMPO 1505/1508 17015G25KT 4000 BLDU PROB40 1510/1515 36010KT

Decode

Departure Runways

ID Width Length Bearing (true) Bearing (mag) Surface Threshold Offset Overrun Length
12L 197 ft / 60 m 13,124 ft / 4,000 m 121.49° 119.44° Asphalt 1,312 ft / 400 m 395 ft / 120 m
12R 151 ft / 46 m 13,139 ft / 4,005 m 121.48° 119.43° Asphalt 394 ft / 120 m 197 ft / 60 m
30L 151 ft / 46 m 13,139 ft / 4,005 m 301.50° 299.45° Asphalt 2,953 ft / 900 m 197 ft / 60 m
30R 197 ft / 60 m 13,124 ft / 4,000 m 301.51° 299.46° Asphalt 0 ft / 0 m 395 ft / 120 m

FIMP

Details ICAO FIMP (MRU)
Name SIR SEEWOOSAGUR RAMGOOLAM INTL
Region Mauritius
Timezone Indian/Mauritius (UTC+4.0)
Stats Elevation 186 ft / 57 m (AMSL)
Location -20.430235° 57.683602°
Runways 1
Magnetic Variation 18.412° W

METAR

FIMP 150200Z 05009KT 9999 FEW017 SCT050 25/21 Q1015

Decode

TAF

TAF FIMP 142335Z 1500/1606 07012KT 9999 SCT017=

Decode

Destination Runways

ID Width Length Bearing (true) Bearing (mag) Surface Threshold Offset Overrun Length
14 148 ft / 45 m 11,037 ft / 3,364 m 117.22° 135.63° Asphalt 1,082 ft / 330 m 200 ft / 61 m
32 148 ft / 45 m 11,037 ft / 3,364 m 297.21° 315.62° Asphalt 0 ft / 0 m 0 ft / 0 m

Approach Navaids

Runway Type Ident Frequency Range Bearing (true) Bearing (mag) Slope Elevation
14 Localiser IPL 109.90 MHz 18 nm / 33 km 117.52° 135.93° - 186 ft / 57 m (AMSL)
14 Glidescope IPL 109.90 MHz 10 nm / 19 km 117.22° 135.63° 3.50° 186 ft / 57 m (AMSL)
14 DME IPL 109.90 MHz 18 nm / 33 km - - - 186 ft / 57 m (AMSL)

Popular Alternatives